createdAt,value
2023-02-09T00:01:03.393Z,-3.20
2023-02-09T00:04:46.137Z,-3.21
2023-02-09T00:08:29.308Z,-3.22
2023-02-09T00:12:29.593Z,-3.27
2023-02-09T00:16:13.914Z,-3.37
2023-02-09T00:19:56.628Z,-3.41
2023-02-09T00:23:41.329Z,-3.43
2023-02-09T00:27:24.951Z,-3.47
2023-02-09T00:31:09.079Z,-3.54
2023-02-09T00:34:53.098Z,-3.59
2023-02-09T00:38:36.234Z,-3.62
2023-02-09T00:42:19.063Z,-3.63
2023-02-09T00:46:01.744Z,-3.65
2023-02-09T00:49:44.443Z,-3.65
2023-02-09T00:53:29.542Z,-3.67
2023-02-09T00:57:12.218Z,-3.73
2023-02-09T01:00:55.018Z,-3.75
2023-02-09T01:04:38.953Z,-3.72
2023-02-09T01:08:21.722Z,-3.68
2023-02-09T01:12:06.265Z,-3.69
2023-02-09T01:15:50.913Z,-3.71
2023-02-09T01:19:33.934Z,-3.71
2023-02-09T01:23:16.583Z,-3.81
2023-02-09T01:26:59.185Z,-3.91
2023-02-09T01:30:45.892Z,-4.00
2023-02-09T01:34:28.713Z,-4.05
2023-02-09T01:38:11.406Z,-4.07
2023-02-09T01:41:55.103Z,-4.09
2023-02-09T01:45:46.190Z,-4.08
2023-02-09T01:49:29.070Z,-4.09
2023-02-09T01:53:14.802Z,-4.15
2023-02-09T01:57:01.540Z,-4.16
2023-02-09T02:00:46.276Z,-4.20
2023-02-09T02:04:30.794Z,-4.22
2023-02-09T02:08:18.064Z,-4.21
2023-02-09T02:12:00.759Z,-4.19
2023-02-09T02:15:53.955Z,-4.16
2023-02-09T02:19:59.247Z,-4.17
2023-02-09T02:23:49.326Z,-4.23
2023-02-09T02:27:33.485Z,-4.21
2023-02-09T02:31:31.869Z,-4.27
2023-02-09T02:35:19.901Z,-4.25
2023-02-09T02:39:10.173Z,-4.23
2023-02-09T02:42:55.644Z,-4.28
2023-02-09T02:46:42.000Z,-4.31
2023-02-09T02:50:28.090Z,-4.35
2023-02-09T02:54:14.357Z,-4.37
2023-02-09T02:58:00.227Z,-4.38
2023-02-09T03:01:47.505Z,-4.38
2023-02-09T03:05:30.657Z,-4.37
2023-02-09T03:09:13.490Z,-4.39
2023-02-09T03:13:03.674Z,-4.38
2023-02-09T03:16:49.644Z,-4.42
2023-02-09T03:20:38.775Z,-4.51
2023-02-09T03:24:30.236Z,-4.50
2023-02-09T03:28:17.189Z,-4.53
2023-02-09T03:32:01.360Z,-4.60
2023-02-09T03:35:44.147Z,-4.67
2023-02-09T03:39:26.829Z,-4.74
2023-02-09T03:43:11.161Z,-4.81
2023-02-09T03:46:54.100Z,-4.82
2023-02-09T03:50:38.648Z,-4.83
2023-02-09T03:54:21.511Z,-4.84
2023-02-09T03:58:04.349Z,-4.88
2023-02-09T04:01:47.000Z,-4.87
2023-02-09T04:05:29.648Z,-4.90
2023-02-09T04:09:14.469Z,-4.99
2023-02-09T04:12:57.193Z,-5.06
2023-02-09T04:16:39.952Z,-5.17
2023-02-09T04:20:25.257Z,-5.20
2023-02-09T04:24:08.989Z,-5.28
2023-02-09T04:27:53.055Z,-5.32
2023-02-09T04:31:36.165Z,-5.29
2023-02-09T04:35:19.477Z,-5.35
2023-02-09T04:39:02.227Z,-5.42
2023-02-09T04:42:46.536Z,-5.54
2023-02-09T04:46:30.581Z,-5.59
2023-02-09T04:50:15.080Z,-5.65
2023-02-09T04:53:57.766Z,-5.72
2023-02-09T04:58:01.375Z,-5.74
2023-02-09T05:01:45.436Z,-5.71
2023-02-09T05:05:28.156Z,-5.70
2023-02-09T05:09:10.952Z,-5.74
2023-02-09T05:12:53.788Z,-5.80
2023-02-09T05:16:39.132Z,-5.81
2023-02-09T05:20:23.468Z,-5.75
2023-02-09T05:24:09.096Z,-5.75
2023-02-09T05:27:53.909Z,-5.76
2023-02-09T05:31:36.763Z,-5.77
2023-02-09T05:35:19.875Z,-5.78
2023-02-09T05:39:03.979Z,-5.71
2023-02-09T05:42:47.782Z,-5.67
2023-02-09T05:46:30.483Z,-5.65
2023-02-09T05:50:13.203Z,-5.58
2023-02-09T05:53:56.333Z,-5.53
2023-02-09T05:57:40.459Z,-5.51
2023-02-09T06:01:24.732Z,-5.48
2023-02-09T06:05:08.064Z,-5.47
2023-02-09T06:08:50.936Z,-5.47
2023-02-09T06:12:33.804Z,-5.48
2023-02-09T06:16:17.815Z,-5.58
2023-02-09T06:20:00.603Z,-5.59
2023-02-09T06:23:43.622Z,-5.60
2023-02-09T06:27:26.477Z,-5.63
2023-02-09T06:31:09.711Z,-5.68
2023-02-09T06:34:54.251Z,-5.68
2023-02-09T06:38:38.085Z,-5.60
2023-02-09T06:42:20.732Z,-5.56
2023-02-09T06:46:08.858Z,-5.57
2023-02-09T06:49:52.920Z,-5.51
2023-02-09T06:53:35.650Z,-5.49
2023-02-09T06:57:18.273Z,-5.43
2023-02-09T07:01:03.253Z,-5.39
2023-02-09T07:04:47.132Z,-5.32
2023-02-09T07:08:31.246Z,-5.25
2023-02-09T07:12:13.908Z,-5.20
2023-02-09T07:15:57.393Z,-5.11
2023-02-09T07:19:40.065Z,-5.06
2023-02-09T07:23:22.932Z,-4.90
2023-02-09T07:27:07.580Z,-4.82
2023-02-09T07:30:51.963Z,-4.75
2023-02-09T07:34:34.985Z,-4.69
2023-02-09T07:38:17.681Z,-4.59
2023-02-09T07:42:01.715Z,-4.53
2023-02-09T07:45:46.058Z,-4.44
2023-02-09T07:49:28.902Z,-4.33
2023-02-09T07:53:11.551Z,-4.16
2023-02-09T07:56:56.097Z,-3.98
2023-02-09T08:00:38.744Z,-3.81
2023-02-09T08:04:23.959Z,-3.70
2023-02-09T08:08:06.770Z,-3.59
2023-02-09T08:11:52.453Z,-3.44
2023-02-09T08:15:39.203Z,-3.31
2023-02-09T08:19:24.613Z,-3.20
2023-02-09T08:23:10.619Z,-3.07
2023-02-09T08:26:53.303Z,-2.92
2023-02-09T08:30:36.238Z,-2.76
2023-02-09T08:34:18.895Z,-2.61
2023-02-09T08:38:03.470Z,-2.46
2023-02-09T08:41:46.467Z,-2.38
2023-02-09T08:45:29.482Z,-2.27
2023-02-09T08:49:13.066Z,-2.23
2023-02-09T08:52:57.786Z,-2.11
2023-02-09T08:56:44.475Z,-2.01
2023-02-09T09:00:27.199Z,-1.89
2023-02-09T09:04:10.049Z,-1.77
2023-02-09T09:07:52.738Z,-1.63
2023-02-09T09:11:35.471Z,-1.48
2023-02-09T09:15:19.944Z,-1.39
2023-02-09T09:19:02.740Z,-1.27
2023-02-09T09:22:45.446Z,-1.19
2023-02-09T09:26:28.126Z,-1.11
2023-02-09T09:30:11.975Z,-0.92
2023-02-09T09:33:56.408Z,-0.83
2023-02-09T09:37:39.114Z,-0.67
2023-02-09T09:41:25.801Z,-0.60
2023-02-09T09:45:14.025Z,-0.50
2023-02-09T09:49:03.209Z,-0.46
2023-02-09T09:52:48.171Z,-0.35
2023-02-09T09:56:31.437Z,-0.23
2023-02-09T10:00:19.267Z,-0.12
2023-02-09T10:04:04.987Z,-0.05
2023-02-09T10:07:52.866Z,0.08
2023-02-09T10:11:39.420Z,0.13
2023-02-09T10:15:28.155Z,0.23
2023-02-09T10:19:24.408Z,0.57
2023-02-09T10:23:07.088Z,0.53
2023-02-09T10:27:03.396Z,0.55
2023-02-09T10:30:48.092Z,0.66
2023-02-09T10:34:34.383Z,0.65
2023-02-09T10:38:18.483Z,0.72
2023-02-09T10:42:13.089Z,0.81
2023-02-09T10:45:57.731Z,0.85
2023-02-09T10:49:41.793Z,0.91
2023-02-09T10:53:27.156Z,1.05
2023-02-09T10:57:22.289Z,1.19
2023-02-09T11:01:17.455Z,1.34
2023-02-09T11:05:01.627Z,1.43
2023-02-09T11:08:47.841Z,1.54
2023-02-09T11:12:30.776Z,1.61
2023-02-09T11:16:32.610Z,1.80
2023-02-09T11:20:24.732Z,1.85
2023-02-09T11:24:11.818Z,1.96
2023-02-09T11:28:05.548Z,2.09
2023-02-09T11:32:00.829Z,2.19
2023-02-09T11:35:53.047Z,2.45
2023-02-09T11:39:43.935Z,2.48
2023-02-09T11:43:29.756Z,2.69
2023-02-09T11:47:19.773Z,2.74
2023-02-09T11:51:06.507Z,2.79
2023-02-09T11:54:51.837Z,3.04
2023-02-09T11:58:41.717Z,3.07
2023-02-09T12:02:37.206Z,3.18
2023-02-09T12:06:23.088Z,3.28
2023-02-09T12:10:14.036Z,3.34
2023-02-09T12:14:03.447Z,3.52
2023-02-09T12:17:49.929Z,3.79
2023-02-09T12:21:41.226Z,3.95
2023-02-09T12:25:39.837Z,4.17
2023-02-09T12:29:35.320Z,4.35
2023-02-09T12:33:18.660Z,4.48
2023-02-09T12:37:28.116Z,4.45
2023-02-09T12:41:12.959Z,4.39
2023-02-09T12:44:58.277Z,4.69
2023-02-09T12:48:49.294Z,5.04
2023-02-09T12:52:33.325Z,5.20
2023-02-09T12:56:28.751Z,5.28
2023-02-09T13:00:32.112Z,5.33
2023-02-09T13:04:15.224Z,5.35
2023-02-09T13:08:04.986Z,5.39
2023-02-09T13:11:51.596Z,5.45
2023-02-09T13:15:46.843Z,5.49
2023-02-09T13:19:53.278Z,5.59
2023-02-09T13:23:44.220Z,5.64
2023-02-09T13:27:27.981Z,5.87
2023-02-09T13:31:35.401Z,6.07
2023-02-09T13:35:24.055Z,6.12
2023-02-09T13:39:23.351Z,6.21
2023-02-09T13:43:17.451Z,6.29
2023-02-09T13:47:01.797Z,6.59
2023-02-09T13:50:48.199Z,6.78
2023-02-09T13:54:32.733Z,6.80
2023-02-09T13:58:19.352Z,6.73
2023-02-09T14:02:02.405Z,6.73
2023-02-09T14:05:48.993Z,6.91
2023-02-09T14:09:47.738Z,7.15
2023-02-09T14:13:33.111Z,7.28
2023-02-09T14:17:25.910Z,6.95
2023-02-09T14:21:32.577Z,6.88
2023-02-09T14:25:24.390Z,6.94
2023-02-09T14:29:17.618Z,7.13
2023-02-09T14:33:03.393Z,7.30
2023-02-09T14:36:52.144Z,7.29
2023-02-09T14:40:37.369Z,7.38
2023-02-09T14:44:22.059Z,7.45
2023-02-09T14:48:17.037Z,7.56
2023-02-09T14:52:04.602Z,7.73
2023-02-09T14:55:49.148Z,7.79
2023-02-09T14:59:34.329Z,7.61
2023-02-09T15:03:17.018Z,7.78
2023-02-09T15:07:04.497Z,7.98
2023-02-09T15:10:56.286Z,8.18
2023-02-09T15:14:42.644Z,8.34
2023-02-09T15:18:27.062Z,8.39
2023-02-09T15:22:13.468Z,8.49
2023-02-09T15:26:00.154Z,8.51
2023-02-09T15:29:45.602Z,8.37
2023-02-09T15:33:29.413Z,8.19
2023-02-09T15:37:20.554Z,8.02
2023-02-09T15:41:22.168Z,7.96
2023-02-09T15:45:39.390Z,7.90
2023-02-09T15:49:22.895Z,7.85
2023-02-09T15:53:07.811Z,7.78
2023-02-09T15:56:52.005Z,7.70
2023-02-09T16:00:37.145Z,7.57
2023-02-09T16:04:20.023Z,7.42
2023-02-09T16:08:02.866Z,7.28
2023-02-09T16:11:46.004Z,7.08
2023-02-09T16:15:30.012Z,6.89
2023-02-09T16:19:12.952Z,6.66
2023-02-09T16:22:55.847Z,6.38
2023-02-09T16:26:38.502Z,6.09
2023-02-09T16:30:24.485Z,5.86
2023-02-09T16:34:09.514Z,5.58
2023-02-09T16:37:53.451Z,5.36
2023-02-09T16:41:52.255Z,5.15
2023-02-09T16:45:36.446Z,4.96
2023-02-09T16:49:32.505Z,4.77
2023-02-09T16:53:16.828Z,4.62
2023-02-09T16:57:00.846Z,4.49
2023-02-09T17:00:44.664Z,4.34
2023-02-09T17:04:28.826Z,4.13
2023-02-09T17:08:16.739Z,3.98
2023-02-09T17:11:59.421Z,3.84
2023-02-09T17:15:44.723Z,3.68
2023-02-09T17:19:35.767Z,3.58
2023-02-09T17:23:29.276Z,3.47
2023-02-09T17:27:12.094Z,3.42
2023-02-09T17:30:57.965Z,3.37
2023-02-09T17:34:42.454Z,3.33
2023-02-09T17:38:27.210Z,3.27
2023-02-09T17:42:22.086Z,3.19
2023-02-09T17:46:06.350Z,3.11
2023-02-09T17:49:53.121Z,3.04
2023-02-09T17:53:36.321Z,2.98
2023-02-09T17:57:19.607Z,2.97
2023-02-09T18:01:02.539Z,2.94
2023-02-09T18:04:45.381Z,2.99
2023-02-09T18:08:31.022Z,2.90
2023-02-09T18:12:20.166Z,2.63
2023-02-09T18:16:02.905Z,2.47
2023-02-09T18:19:46.034Z,2.36
2023-02-09T18:23:30.097Z,2.28
2023-02-09T18:27:15.059Z,2.20
2023-02-09T18:30:58.325Z,2.13
2023-02-09T18:34:41.223Z,2.06
2023-02-09T18:38:23.993Z,2.02
2023-02-09T18:42:08.585Z,1.95
2023-02-09T18:45:51.318Z,1.85
2023-02-09T18:49:34.015Z,1.76
2023-02-09T18:53:19.138Z,1.67
2023-02-09T18:57:01.829Z,1.58
2023-02-09T19:00:45.891Z,1.58
2023-02-09T19:04:28.563Z,1.50
2023-02-09T19:08:11.259Z,1.48
2023-02-09T19:11:53.930Z,1.43
2023-02-09T19:15:38.874Z,1.39
2023-02-09T19:19:23.006Z,1.37
2023-02-09T19:23:07.625Z,1.32
2023-02-09T19:26:50.379Z,1.25
2023-02-09T19:30:33.105Z,1.20
2023-02-09T19:34:15.802Z,1.15
2023-02-09T19:38:00.126Z,1.09
2023-02-09T19:41:44.297Z,1.08
2023-02-09T19:45:26.980Z,1.01
2023-02-09T19:49:09.890Z,0.96
2023-02-09T19:52:53.069Z,0.94
2023-02-09T19:56:38.162Z,0.87
2023-02-09T20:00:23.913Z,0.73
2023-02-09T20:04:06.720Z,0.61
2023-02-09T20:07:49.609Z,0.59
2023-02-09T20:11:33.215Z,0.50
2023-02-09T20:15:17.470Z,0.45
2023-02-09T20:19:00.284Z,0.29
2023-02-09T20:22:42.951Z,0.26
2023-02-09T20:26:29.119Z,0.25
2023-02-09T20:30:12.909Z,0.22
2023-02-09T20:33:57.353Z,0.17
2023-02-09T20:37:40.066Z,0.10
2023-02-09T20:41:22.740Z,0.06
2023-02-09T20:45:23.695Z,-0.05
2023-02-09T20:49:08.629Z,-0.14
2023-02-09T20:52:51.341Z,-0.19
2023-02-09T20:56:34.070Z,-0.26
2023-02-09T21:00:17.409Z,-0.33
2023-02-09T21:04:00.384Z,-0.35
2023-02-09T21:07:44.470Z,-0.40
2023-02-09T21:11:27.177Z,-0.40
2023-02-09T21:15:10.120Z,-0.50
2023-02-09T21:18:52.904Z,-0.56
2023-02-09T21:22:35.663Z,-0.60
2023-02-09T21:26:22.598Z,-0.67
2023-02-09T21:30:05.653Z,-0.65
2023-02-09T21:33:48.508Z,-0.70
2023-02-09T21:37:32.127Z,-0.75
2023-02-09T21:41:32.232Z,-0.77
2023-02-09T21:45:16.222Z,-0.80
2023-02-09T21:48:59.041Z,-0.86
2023-02-09T21:52:43.588Z,-0.87
2023-02-09T21:56:26.624Z,-0.95
2023-02-09T22:00:11.622Z,-0.96
2023-02-09T22:03:57.311Z,-1.00
2023-02-09T22:07:40.168Z,-1.05
2023-02-09T22:11:22.869Z,-1.08
2023-02-09T22:15:09.036Z,-1.01
2023-02-09T22:18:51.756Z,-0.96
2023-02-09T22:22:36.012Z,-0.94
2023-02-09T22:26:19.786Z,-0.99
2023-02-09T22:30:02.561Z,-0.97
2023-02-09T22:33:45.388Z,-0.93
2023-02-09T22:37:28.113Z,-0.88
2023-02-09T22:41:21.593Z,-0.87
2023-02-09T22:45:05.339Z,-0.87
2023-02-09T22:48:51.387Z,-0.88
2023-02-09T22:52:34.345Z,-0.86
2023-02-09T22:56:18.428Z,-0.87
2023-02-09T23:00:01.143Z,-0.85
2023-02-09T23:03:43.995Z,-1.06
2023-02-09T23:07:27.394Z,-1.11
2023-02-09T23:11:14.725Z,-1.17
2023-02-09T23:14:58.839Z,-1.12
2023-02-09T23:18:46.628Z,-1.07
2023-02-09T23:22:29.281Z,-1.05
2023-02-09T23:26:12.700Z,-1.13
2023-02-09T23:29:55.788Z,-1.15
2023-02-09T23:33:40.050Z,-1.15
2023-02-09T23:37:36.818Z,-1.17
2023-02-09T23:41:20.526Z,-1.18
2023-02-09T23:45:06.366Z,-1.20
2023-02-09T23:48:53.185Z,-1.20
2023-02-09T23:52:35.893Z,-1.18
2023-02-09T23:56:19.067Z,-1.14
